createdAt,value
2018-04-11T00:02:29.006Z,4.80
2018-04-11T00:07:30.573Z,4.50
2018-04-11T00:12:32.888Z,4.20
2018-04-11T00:17:34.452Z,4.50
2018-04-11T00:22:36.284Z,4.50
2018-04-11T00:27:37.834Z,4.43
2018-04-11T00:32:39.385Z,5.17
2018-04-11T00:37:41.202Z,5.43
2018-04-11T00:42:43.491Z,6.13
2018-04-11T00:47:45.768Z,5.93
2018-04-11T00:53:06.548Z,5.67
2018-04-11T00:58:08.060Z,6.80
2018-04-11T01:03:10.351Z,7.23
2018-04-11T01:08:12.647Z,10.83
2018-04-11T01:13:14.896Z,10.63
2018-04-11T01:18:16.444Z,12.33
2018-04-11T01:23:17.991Z,13.07
2018-04-11T01:28:19.736Z,14.37
2018-04-11T01:33:21.259Z,16.97
2018-04-11T01:38:22.756Z,16.20
2018-04-11T01:43:25.037Z,17.70
2018-04-11T01:48:27.321Z,17.10
2018-04-11T01:53:29.600Z,18.17
2018-04-11T01:58:31.892Z,20.90
2018-04-11T02:03:34.248Z,19.13
2018-04-11T02:08:35.797Z,18.73
2018-04-11T02:13:37.413Z,21.53
2018-04-11T02:18:39.723Z,20.20
2018-04-11T02:23:41.294Z,19.43
2018-04-11T02:28:42.753Z,18.00
2018-04-11T02:33:44.359Z,18.80
2018-04-11T02:38:45.928Z,19.90
2018-04-11T02:43:47.449Z,18.63
2018-04-11T02:48:49.740Z,20.37
2018-04-11T02:53:51.270Z,19.33
2018-04-11T02:58:52.815Z,20.40
2018-04-11T03:03:54.404Z,22.53
2018-04-11T03:08:55.983Z,22.87
2018-04-11T03:13:57.517Z,24.70
2018-04-11T03:18:59.073Z,27.33
2018-04-11T03:24:00.603Z,25.30
2018-04-11T03:29:02.934Z,28.27
2018-04-11T03:34:04.459Z,27.40
2018-04-11T03:39:06.821Z,28.77
2018-04-11T03:44:08.359Z,25.93
2018-04-11T03:49:09.910Z,22.97
2018-04-11T03:54:11.492Z,21.30
2018-04-11T03:59:13.174Z,21.20
2018-04-11T04:04:14.729Z,19.03
2018-04-11T04:09:16.298Z,18.47
2018-04-11T04:30:29.211Z,20.10
2018-04-11T04:35:30.868Z,23.70
2018-04-11T04:40:33.134Z,25.17
2018-04-11T04:45:34.759Z,25.20
2018-04-11T04:50:36.265Z,25.53
2018-04-11T04:55:37.778Z,26.13
2018-04-11T05:00:39.312Z,25.17
2018-04-11T05:05:40.899Z,27.70
2018-04-11T05:10:43.172Z,25.07
2018-04-11T05:15:45.432Z,29.67
2018-04-11T05:20:46.964Z,28.47
2018-04-11T05:25:48.511Z,29.07
2018-04-11T05:30:50.750Z,27.10
2018-04-11T05:35:52.305Z,29.37
2018-04-11T05:40:53.852Z,30.17
2018-04-11T05:45:55.417Z,29.43
2018-04-11T05:50:56.944Z,29.33
2018-04-11T05:55:58.464Z,30.50
2018-04-11T06:01:00.027Z,30.17
2018-04-11T06:06:01.635Z,30.70
2018-04-11T06:11:03.179Z,42.70
2018-04-11T06:16:04.742Z,39.90
2018-04-11T06:21:06.256Z,27.77
2018-04-11T06:26:07.879Z,30.00
2018-04-11T06:31:09.455Z,29.37
2018-04-11T06:36:10.983Z,29.70
2018-04-11T06:41:12.560Z,27.80
2018-04-11T06:46:14.089Z,28.67
2018-04-11T06:51:22.820Z,27.30
2018-04-11T06:56:24.391Z,28.60
2018-04-11T07:01:25.974Z,26.83
2018-04-11T07:06:28.391Z,27.67
2018-04-11T07:11:30.005Z,25.10
2018-04-11T07:16:31.509Z,25.57
2018-04-11T07:21:33.844Z,24.90
2018-04-11T07:26:35.440Z,24.73
2018-04-11T07:31:36.964Z,21.63
2018-04-11T07:36:38.568Z,20.13
2018-04-11T07:41:40.112Z,19.07
2018-04-11T07:46:41.711Z,17.63
2018-04-11T07:51:43.219Z,15.20
2018-04-11T07:56:44.742Z,15.13
2018-04-11T08:01:46.299Z,15.43
2018-04-11T08:06:47.896Z,16.70
2018-04-11T08:11:49.461Z,15.07
2018-04-11T08:16:50.998Z,14.00
2018-04-11T08:21:52.622Z,13.77
2018-04-11T08:26:54.904Z,15.50
2018-04-11T08:31:58.121Z,15.10
2018-04-11T08:36:59.731Z,14.90
2018-04-11T08:42:01.328Z,14.03
2018-04-11T08:47:02.842Z,12.43
2018-04-11T08:52:04.432Z,12.83
2018-04-11T08:57:06.002Z,12.40
2018-04-11T09:02:07.530Z,13.30
2018-04-11T09:07:09.077Z,14.30
2018-04-11T09:12:10.735Z,12.60
2018-04-11T09:17:12.273Z,13.43
2018-04-11T09:22:13.876Z,12.70
2018-04-11T09:27:15.431Z,13.23
2018-04-11T09:32:17.067Z,11.37
2018-04-11T09:37:18.598Z,13.23
2018-04-11T09:42:20.884Z,12.13
2018-04-11T09:47:23.154Z,12.20
2018-04-11T09:52:24.692Z,11.03
2018-04-11T09:57:26.202Z,12.77
2018-04-11T10:02:28.515Z,11.37
2018-04-11T10:07:29.998Z,12.20
2018-04-11T10:12:31.523Z,12.33
2018-04-11T10:17:33.836Z,11.80
2018-04-11T10:22:35.404Z,10.80
2018-04-11T10:27:36.900Z,10.70
2018-04-11T10:32:38.411Z,10.80
2018-04-11T10:37:40.705Z,11.50
2018-04-11T10:42:43.121Z,11.63
2018-04-11T10:47:44.715Z,13.40
2018-04-11T10:52:46.253Z,14.47
2018-04-11T10:57:47.761Z,14.87
2018-04-11T11:02:49.350Z,14.40
2018-04-11T11:07:50.871Z,12.17
2018-04-11T11:12:52.437Z,9.93
2018-04-11T11:17:54.019Z,13.07
2018-04-11T11:22:55.611Z,13.03
2018-04-11T11:27:57.031Z,12.83
2018-04-11T11:32:58.588Z,11.80
2018-04-11T11:38:00.140Z,10.50
2018-04-11T11:43:02.427Z,10.30
2018-04-11T11:48:04.744Z,8.77
2018-04-11T11:53:06.285Z,11.30
2018-04-11T11:58:08.496Z,11.57
2018-04-11T12:03:09.976Z,16.93
2018-04-11T12:08:11.580Z,11.70
2018-04-11T12:13:13.107Z,14.90
2018-04-11T12:18:14.743Z,13.33
2018-04-11T12:23:17.045Z,11.90
2018-04-11T12:28:18.561Z,14.57
2018-04-11T12:33:20.132Z,11.83
2018-04-11T12:38:21.732Z,10.37
2018-04-11T12:43:24.084Z,9.30
2018-04-11T12:48:25.729Z,9.70
2018-04-11T12:53:27.264Z,8.57
2018-04-11T12:58:28.786Z,10.30
2018-04-11T13:03:30.400Z,9.40
2018-04-11T13:08:32.070Z,7.90
2018-04-11T13:13:33.569Z,5.50
2018-04-11T13:18:35.140Z,5.33
2018-04-11T13:23:36.739Z,5.70
2018-04-11T13:28:38.240Z,5.00
2018-04-11T13:33:40.508Z,4.70
2018-04-11T13:38:42.799Z,7.27
2018-04-11T13:43:45.284Z,7.50
2018-04-11T13:48:47.626Z,9.57
2018-04-11T13:53:49.175Z,8.07
2018-04-11T13:58:50.715Z,9.77
2018-04-11T14:03:52.992Z,10.87
2018-04-11T14:08:55.302Z,11.10
2018-04-11T14:13:56.778Z,11.47
2018-04-11T14:18:58.350Z,13.90
2018-04-11T14:24:06.822Z,12.03
2018-04-11T14:29:08.362Z,11.10
2018-04-11T14:34:09.957Z,9.03
2018-04-11T14:39:11.480Z,9.10
2018-04-11T14:44:13.052Z,12.70
2018-04-11T14:49:14.724Z,10.20
2018-04-11T14:54:16.479Z,10.40
2018-04-11T14:59:18.061Z,9.30
2018-04-11T15:04:19.610Z,10.07
2018-04-11T15:09:21.920Z,8.50
2018-04-11T15:14:23.407Z,8.50
2018-04-11T15:19:24.982Z,7.60
2018-04-11T15:24:26.587Z,7.80
2018-04-11T15:29:28.997Z,8.33
2018-04-11T15:34:30.638Z,7.53
2018-04-11T15:39:32.190Z,7.67
2018-04-11T15:44:33.715Z,7.37
2018-04-11T15:49:35.271Z,7.33
2018-04-11T15:54:36.804Z,7.10
2018-04-11T15:59:38.370Z,6.50
2018-04-11T16:04:39.892Z,6.60
2018-04-11T16:09:41.491Z,5.97
2018-04-11T16:14:43.024Z,5.63
2018-04-11T16:19:44.588Z,6.20
2018-04-11T16:24:46.180Z,6.20
2018-04-11T16:29:47.677Z,5.77
2018-04-11T16:34:49.231Z,6.30
2018-04-11T16:39:50.903Z,5.80
2018-04-11T16:44:52.396Z,5.70
2018-04-11T16:49:53.932Z,5.13
2018-04-11T16:55:02.332Z,5.53
2018-04-11T17:00:03.874Z,4.97
2018-04-11T17:05:06.137Z,4.60
2018-04-11T17:10:07.765Z,6.70
2018-04-11T17:15:09.493Z,6.20
2018-04-11T17:20:11.734Z,5.40
2018-04-11T17:25:31.508Z,6.47
2018-04-11T17:30:51.558Z,6.00
2018-04-11T17:35:53.109Z,5.73
2018-04-11T17:40:54.787Z,6.20
2018-04-11T17:45:56.276Z,6.20
2018-04-11T17:50:57.845Z,6.33
2018-04-11T17:55:59.507Z,6.30
2018-04-11T18:01:01.109Z,6.37
2018-04-11T18:06:02.676Z,6.70
2018-04-11T18:11:04.998Z,5.67
2018-04-11T18:16:06.621Z,6.40
2018-04-11T18:21:09.003Z,5.67
2018-04-11T18:26:11.232Z,5.60
2018-04-11T18:31:12.752Z,6.00
2018-04-11T18:36:14.990Z,5.50
2018-04-11T18:41:16.533Z,5.90
2018-04-11T18:46:18.099Z,6.30
2018-04-11T18:51:19.601Z,6.20
2018-04-11T18:56:21.078Z,7.03
2018-04-11T19:01:22.578Z,6.57
2018-04-11T19:06:24.917Z,6.60
2018-04-11T19:11:26.441Z,6.17
2018-04-11T19:16:28.671Z,7.37
2018-04-11T19:21:30.263Z,7.07
2018-04-11T19:26:31.840Z,6.43
2018-04-11T19:31:33.410Z,6.97
2018-04-11T19:36:35.056Z,6.60
2018-04-11T19:41:36.607Z,5.30
2018-04-11T19:46:38.141Z,6.20
2018-04-11T19:51:40.615Z,5.43
2018-04-11T19:56:42.841Z,5.70
2018-04-11T20:01:44.556Z,5.40
2018-04-11T20:06:46.285Z,5.70
2018-04-11T20:11:47.811Z,5.90
2018-04-11T20:16:50.058Z,5.27
2018-04-11T20:21:51.616Z,5.60
2018-04-11T20:26:53.960Z,6.40
2018-04-11T20:31:56.255Z,6.60
2018-04-11T20:36:57.748Z,6.90
2018-04-11T20:41:59.248Z,7.43
2018-04-11T20:47:00.707Z,6.70
2018-04-11T20:52:02.215Z,6.17
2018-04-11T20:57:04.485Z,6.60
2018-04-11T21:02:06.901Z,5.90
2018-04-11T21:07:08.525Z,5.40
2018-04-11T21:12:10.104Z,5.80
2018-04-11T21:17:12.588Z,5.77
2018-04-11T21:22:14.114Z,4.70
2018-04-11T21:27:15.645Z,4.50
2018-04-11T21:32:18.037Z,5.20
2018-04-11T21:37:20.356Z,5.70
2018-04-11T21:42:21.937Z,4.93
2018-04-11T21:47:23.540Z,4.70
2018-04-11T21:52:25.092Z,4.20
2018-04-11T21:57:26.702Z,4.57
2018-04-11T22:02:28.991Z,4.13
2018-04-11T22:07:30.531Z,3.97
2018-04-11T22:12:32.104Z,4.20
2018-04-11T22:17:33.655Z,4.57
2018-04-11T22:22:35.163Z,5.03
2018-04-11T22:27:36.780Z,5.17
2018-04-11T22:32:38.317Z,5.50
2018-04-11T22:37:39.905Z,6.30
2018-04-11T22:42:41.432Z,6.37
2018-04-11T22:47:43.736Z,6.27
2018-04-11T22:52:45.297Z,6.07
2018-04-11T22:57:46.827Z,6.97
2018-04-11T23:02:48.325Z,7.80
2018-04-11T23:07:50.600Z,8.47
2018-04-11T23:12:53.069Z,8.13
2018-04-11T23:17:54.607Z,8.50
2018-04-11T23:22:56.179Z,8.07
2018-04-11T23:27:57.721Z,9.33
2018-04-11T23:32:59.261Z,10.10
2018-04-11T23:38:01.559Z,9.60
2018-04-11T23:43:03.097Z,10.47
2018-04-11T23:48:04.636Z,10.90
2018-04-11T23:53:06.222Z,11.23
2018-04-11T23:58:07.745Z,11.97
